Terminal Aerodrome Forecast
Issued by NWS

Home | Current Version | Previous Version | Text Only | Print | Product List | Glossary On
Versions: 1 2 3 4 5 6 7 8 9 10 11 12 13 14 15 16 17 18 19 20 21 22 23 24 25 26 27 28
000
FTUS41 KRNK 270540
TAFLWB
TAF
KLWB 270540Z 2706/2806 VRB03KT P6SM SCT250 WS020/19035KT
     FM271900 20012KT P6SM SCT040 BKN250
     FM272100 22008G20KT P6SM -SHRA VCTS BKN040CB OVC100
     FM280000 24004KT P6SM SCT050 BKN150
     FM280400 00000KT 4SM BR SCT015=

USA.gov is the U.S. government's official web portal to all federal, state and local government web resources and services.